Wigton, United Kingdom
Current Conditions -  °F | °C
As of 7:50 AM on Friday 31 Oct 2014 (Local Time) from EGOM Reporting Station
Haze Haze  
Wind Chill: 55°   Ceiling: 4100
Heat Index: 55°   Visibility: 6mi
Dew Point: 55°   Wind: 14mph
Humidity: 100%   Direction: 190°S
Pressure: 29.83"   Gusts: NA
Location:  54.82°N, 3.16°W
Report Text: EGOM 310750Z AUTO 19012KT 9000 BR FEW028/// BKN041/// 13/13 Q1010
Loading
Personal Weather Stations






























Interactive Weather Map
Tropical Storm Tracking
New forecast layout! Learn more

10-Day Weather Forecast

Advertisements
Track Severe Weather on mobile